sensor_id;sensor_type;location;lat;lon;timestamp;pressure;altitude;pressure_sealevel;temperature;humidity
32747;BME280;19118;50.860;13.662;2022-09-09T00:02:28;96607.31;;;13.62;96.32
32747;BME280;19118;50.860;13.662;2022-09-09T00:07:43;96611.44;;;13.58;96.71
32747;BME280;19118;50.860;13.662;2022-09-09T00:13:00;96599.75;;;13.47;96.79
32747;BME280;19118;50.860;13.662;2022-09-09T00:28:23;96594.63;;;13.64;96.04
32747;BME280;19118;50.860;13.662;2022-09-09T00:33:26;96598.59;;;13.43;96.76
32747;BME280;19118;50.860;13.662;2022-09-09T00:38:36;96599.75;;;13.47;96.62
32747;BME280;19118;50.860;13.662;2022-09-09T00:43:39;96596.03;;;13.36;97.36
32747;BME280;19118;50.860;13.662;2022-09-09T00:54:46;96609.25;;;13.06;98.95
32747;BME280;19118;50.860;13.662;2022-09-09T01:04:45;96605.91;;;12.74;100.00
32747;BME280;19118;50.860;13.662;2022-09-09T01:09:58;96599.19;;;12.90;100.00
32747;BME280;19118;50.860;13.662;2022-09-09T01:15:09;96607.78;;;12.92;99.24
32747;BME280;19118;50.860;13.662;2022-09-09T01:20:24;96610.03;;;13.07;98.58
32747;BME280;19118;50.860;13.662;2022-09-09T01:31:10;96608.06;;;13.02;97.66
32747;BME280;19118;50.860;13.662;2022-09-09T01:41:26;96598.78;;;12.75;100.00
32747;BME280;19118;50.860;13.662;2022-09-09T01:46:35;96602.91;;;12.71;100.00
32747;BME280;19118;50.860;13.662;2022-09-09T01:51:38;96598.75;;;12.57;100.00
32747;BME280;19118;50.860;13.662;2022-09-09T02:06:55;96584.19;;;12.84;100.00
32747;BME280;19118;50.860;13.662;2022-09-09T02:12:06;96584.59;;;13.18;98.10
32747;BME280;19118;50.860;13.662;2022-09-09T02:17:20;96579.13;;;13.31;97.11
32747;BME280;19118;50.860;13.662;2022-09-09T02:22:42;96581.22;;;13.29;97.39
32747;BME280;19118;50.860;13.662;2022-09-09T02:27:49;96592.28;;;13.26;97.46
32747;BME280;19118;50.860;13.662;2022-09-09T02:32:52;96579.22;;;13.24;97.58
32747;BME280;19118;50.860;13.662;2022-09-09T02:38:02;96574.13;;;13.53;96.03
32747;BME280;19118;50.860;13.662;2022-09-09T02:43:05;96580.13;;;13.48;96.05
32747;BME280;19118;50.860;13.662;2022-09-09T02:48:18;96583.63;;;13.30;96.58
32747;BME280;19118;50.860;13.662;2022-09-09T02:53:49;96589.75;;;13.31;96.73
32747;BME280;19118;50.860;13.662;2022-09-09T02:58:49;96580.13;;;13.48;96.19
32747;BME280;19118;50.860;13.662;2022-09-09T03:03:52;96585.78;;;13.82;93.97
32747;BME280;19118;50.860;13.662;2022-09-09T03:08:55;96596.16;;;13.72;94.20
32747;BME280;19118;50.860;13.662;2022-09-09T03:13:59;96596.84;;;13.79;94.28
32747;BME280;19118;50.860;13.662;2022-09-09T03:19:03;96592.44;;;13.73;93.92
32747;BME280;19118;50.860;13.662;2022-09-09T03:24:04;96593.00;;;13.63;94.28
32747;BME280;19118;50.860;13.662;2022-09-09T03:29:05;96586.25;;;13.49;94.49
32747;BME280;19118;50.860;13.662;2022-09-09T03:34:09;96588.09;;;13.48;94.87
32747;BME280;19118;50.860;13.662;2022-09-09T03:39:10;96591.38;;;13.32;95.85
32747;BME280;19118;50.860;13.662;2022-09-09T03:44:12;96589.16;;;13.10;96.92
32747;BME280;19118;50.860;13.662;2022-09-09T03:49:15;96594.19;;;13.00;97.84
32747;BME280;19118;50.860;13.662;2022-09-09T03:54:17;96595.09;;;12.94;97.74
32747;BME280;19118;50.860;13.662;2022-09-09T03:59:17;96594.94;;;12.89;98.03
32747;BME280;19118;50.860;13.662;2022-09-09T04:04:17;96586.38;;;13.05;97.23
32747;BME280;19118;50.860;13.662;2022-09-09T04:09:19;96596.09;;;13.11;95.60
32747;BME280;19118;50.860;13.662;2022-09-09T04:14:22;96587.59;;;12.91;97.10
32747;BME280;19118;50.860;13.662;2022-09-09T04:19:22;96590.50;;;13.01;96.92
32747;BME280;19118;50.860;13.662;2022-09-09T04:24:24;96588.97;;;12.94;97.19
32747;BME280;19118;50.860;13.662;2022-09-09T04:29:25;96589.50;;;12.84;97.58
32747;BME280;19118;50.860;13.662;2022-09-09T04:34:25;96597.00;;;12.87;97.49
32747;BME280;19118;50.860;13.662;2022-09-09T04:39:28;96601.56;;;12.98;97.49
32747;BME280;19118;50.860;13.662;2022-09-09T04:44:29;96597.28;;;13.16;96.46
32747;BME280;19118;50.860;13.662;2022-09-09T04:49:30;96610.78;;;13.14;96.64
32747;BME280;19118;50.860;13.662;2022-09-09T04:54:32;96601.72;;;13.22;98.68
32747;BME280;19118;50.860;13.662;2022-09-09T04:59:33;96596.66;;;13.50;95.08
32747;BME280;19118;50.860;13.662;2022-09-09T05:04:35;96598.66;;;13.66;93.88
32747;BME280;19118;50.860;13.662;2022-09-09T05:09:36;96610.28;;;13.84;93.96
32747;BME280;19118;50.860;13.662;2022-09-09T05:14:36;96615.19;;;14.10;92.98
32747;BME280;19118;50.860;13.662;2022-09-09T05:19:38;96606.66;;;14.32;92.13
32747;BME280;19118;50.860;13.662;2022-09-09T05:24:39;96609.81;;;14.52;91.56
32747;BME280;19118;50.860;13.662;2022-09-09T05:29:39;96610.34;;;14.89;89.35
32747;BME280;19118;50.860;13.662;2022-09-09T05:34:43;96625.56;;;15.17;87.62
32747;BME280;19118;50.860;13.662;2022-09-09T05:39:43;96628.34;;;15.22;87.10
32747;BME280;19118;50.860;13.662;2022-09-09T05:44:45;96639.28;;;15.37;87.35
32747;BME280;19118;50.860;13.662;2022-09-09T05:49:46;96644.56;;;15.61;85.60
32747;BME280;19118;50.860;13.662;2022-09-09T05:54:47;96644.56;;;15.89;84.58
32747;BME280;19118;50.860;13.662;2022-09-09T05:59:47;96648.81;;;16.19;84.12
32747;BME280;19118;50.860;13.662;2022-09-09T06:04:48;96653.59;;;16.34;83.99
32747;BME280;19118;50.860;13.662;2022-09-09T06:09:48;96645.25;;;16.47;84.49
32747;BME280;19118;50.860;13.662;2022-09-09T06:14:50;96649.66;;;16.70;82.34
32747;BME280;19118;50.860;13.662;2022-09-09T06:19:53;96643.47;;;16.86;82.99
32747;BME280;19118;50.860;13.662;2022-09-09T06:24:53;96650.31;;;16.99;83.87
32747;BME280;19118;50.860;13.662;2022-09-09T06:29:54;96646.44;;;17.28;84.55
32747;BME280;19118;50.860;13.662;2022-09-09T06:34:54;96649.09;;;17.50;82.85
32747;BME280;19118;50.860;13.662;2022-09-09T06:39:55;96654.72;;;17.70;81.24
32747;BME280;19118;50.860;13.662;2022-09-09T06:44:55;96653.91;;;17.70;79.95
32747;BME280;19118;50.860;13.662;2022-09-09T06:50:07;96646.66;;;17.92;79.15
32747;BME280;19118;50.860;13.662;2022-09-09T06:55:09;96655.22;;;17.94;79.54
32747;BME280;19118;50.860;13.662;2022-09-09T07:00:10;96664.09;;;18.27;79.90
32747;BME280;19118;50.860;13.662;2022-09-09T07:05:12;96660.88;;;18.25;79.14
32747;BME280;19118;50.860;13.662;2022-09-09T07:10:15;96646.00;;;18.39;77.78
32747;BME280;19118;50.860;13.662;2022-09-09T07:15:15;96653.50;;;18.69;77.83
32747;BME280;19118;50.860;13.662;2022-09-09T07:20:18;96645.69;;;19.10;76.12
32747;BME280;19118;50.860;13.662;2022-09-09T07:25:20;96648.16;;;20.04;73.14
32747;BME280;19118;50.860;13.662;2022-09-09T07:30:22;96642.28;;;20.23;70.63
32747;BME280;19118;50.860;13.662;2022-09-09T07:35:23;96647.91;;;19.96;73.13
32747;BME280;19118;50.860;13.662;2022-09-09T07:40:24;96646.59;;;20.24;72.90
32747;BME280;19118;50.860;13.662;2022-09-09T07:45:24;96650.91;;;20.86;72.43
32747;BME280;19118;50.860;13.662;2022-09-09T07:50:26;96658.41;;;20.89;71.85
32747;BME280;19118;50.860;13.662;2022-09-09T07:55:26;96665.63;;;19.97;72.01
32747;BME280;19118;50.860;13.662;2022-09-09T08:00:28;96664.00;;;19.96;73.50
32747;BME280;19118;50.860;13.662;2022-09-09T08:05:31;96678.81;;;20.19;74.05
32747;BME280;19118;50.860;13.662;2022-09-09T08:10:31;96687.16;;;20.27;74.88
32747;BME280;19118;50.860;13.662;2022-09-09T08:15:33;96674.78;;;20.06;73.90
32747;BME280;19118;50.860;13.662;2022-09-09T08:20:36;96683.44;;;19.51;76.56
32747;BME280;19118;50.860;13.662;2022-09-09T08:25:36;96679.78;;;19.72;77.88
32747;BME280;19118;50.860;13.662;2022-09-09T08:30:37;96678.78;;;19.98;76.91
32747;BME280;19118;50.860;13.662;2022-09-09T08:35:37;96689.84;;;20.32;75.24
32747;BME280;19118;50.860;13.662;2022-09-09T08:40:42;96687.66;;;21.21;72.24
32747;BME280;19118;50.860;13.662;2022-09-09T08:46:10;96686.38;;;20.88;72.11
32747;BME280;19118;50.860;13.662;2022-09-09T08:51:15;96691.75;;;20.93;71.76
32747;BME280;19118;50.860;13.662;2022-09-09T08:56:24;96696.59;;;20.96;71.47
32747;BME280;19118;50.860;13.662;2022-09-09T09:01:41;96717.41;;;19.92;77.15
32747;BME280;19118;50.860;13.662;2022-09-09T09:11:55;96696.97;;;19.71;79.96
32747;BME280;19118;50.860;13.662;2022-09-09T09:17:03;96704.47;;;19.74;83.35
32747;BME280;19118;50.860;13.662;2022-09-09T09:22:18;96726.09;;;18.73;88.52
32747;BME280;19118;50.860;13.662;2022-09-09T09:27:31;96710.72;;;18.04;91.56
32747;BME280;19118;50.860;13.662;2022-09-09T09:32:34;96704.75;;;17.75;94.04
32747;BME280;19118;50.860;13.662;2022-09-09T09:37:35;96691.13;;;18.57;91.88
32747;BME280;19118;50.860;13.662;2022-09-09T09:42:48;96682.50;;;19.82;86.30
32747;BME280;19118;50.860;13.662;2022-09-09T09:48:05;96687.94;;;20.38;83.00
32747;BME280;19118;50.860;13.662;2022-09-09T09:53:20;96685.59;;;20.57;78.73
32747;BME280;19118;50.860;13.662;2022-09-09T09:58:21;96685.81;;;20.30;82.30
32747;BME280;19118;50.860;13.662;2022-09-09T10:03:31;96689.59;;;20.49;79.84
32747;BME280;19118;50.860;13.662;2022-09-09T10:08:44;96687.94;;;20.23;83.54
32747;BME280;19118;50.860;13.662;2022-09-09T10:19:03;96672.41;;;20.60;77.85
32747;BME280;19118;50.860;13.662;2022-09-09T10:29:37;96670.50;;;20.91;75.92
32747;BME280;19118;50.860;13.662;2022-09-09T10:45:32;96656.84;;;20.62;76.21
32747;BME280;19118;50.860;13.662;2022-09-09T10:55:52;96664.00;;;21.28;80.70
32747;BME280;19118;50.860;13.662;2022-09-09T11:01:01;96654.69;;;20.64;79.55
32747;BME280;19118;50.860;13.662;2022-09-09T11:06:17;96650.09;;;20.96;81.30
32747;BME280;19118;50.860;13.662;2022-09-09T11:11:25;96646.03;;;20.93;78.08
32747;BME280;19118;50.860;13.662;2022-09-09T11:16:30;96657.69;;;21.58;76.52
32747;BME280;19118;50.860;13.662;2022-09-09T11:21:38;96647.06;;;21.17;76.19
32747;BME280;19118;50.860;13.662;2022-09-09T11:26:55;96642.19;;;22.67;70.65
32747;BME280;19118;50.860;13.662;2022-09-09T11:32:01;96651.97;;;22.24;68.76
32747;BME280;19118;50.860;13.662;2022-09-09T11:47:27;96644.16;;;21.73;73.17
32747;BME280;19118;50.860;13.662;2022-09-09T11:52:41;96635.13;;;21.54;72.44
32747;BME280;19118;50.860;13.662;2022-09-09T11:57:44;96635.75;;;21.20;72.91
32747;BME280;19118;50.860;13.662;2022-09-09T12:02:49;96634.00;;;21.60;71.38
32747;BME280;19118;50.860;13.662;2022-09-09T12:07:54;96627.41;;;21.27;73.17
32747;BME280;19118;50.860;13.662;2022-09-09T12:13:09;96610.75;;;22.24;72.67
32747;BME280;19118;50.860;13.662;2022-09-09T12:18:23;96613.56;;;21.64;72.74
32747;BME280;19118;50.860;13.662;2022-09-09T12:33:52;96610.25;;;21.77;72.43
32747;BME280;19118;50.860;13.662;2022-09-09T12:38:53;96603.50;;;22.53;70.71
32747;BME280;19118;50.860;13.662;2022-09-09T12:44:05;96606.75;;;24.13;67.19
32747;BME280;19118;50.860;13.662;2022-09-09T12:49:27;96604.47;;;24.20;65.19
32747;BME280;19118;50.860;13.662;2022-09-09T12:54:28;96594.88;;;24.46;64.18
32747;BME280;19118;50.860;13.662;2022-09-09T12:59:37;96584.78;;;23.63;60.94
32747;BME280;19118;50.860;13.662;2022-09-09T13:04:39;96581.88;;;22.87;62.43
32747;BME280;19118;50.860;13.662;2022-09-09T13:09:40;96576.03;;;22.80;65.32
32747;BME280;19118;50.860;13.662;2022-09-09T13:14:43;96580.50;;;23.38;62.80
32747;BME280;19118;50.860;13.662;2022-09-09T13:19:44;96575.22;;;22.80;63.21
32747;BME280;19118;50.860;13.662;2022-09-09T13:24:46;96566.63;;;23.26;61.13
32747;BME280;19118;50.860;13.662;2022-09-09T13:29:54;96565.69;;;23.35;61.82
32747;BME280;19118;50.860;13.662;2022-09-09T13:34:59;96567.56;;;24.29;60.71
32747;BME280;19118;50.860;13.662;2022-09-09T13:40:00;96564.03;;;24.15;59.83
32747;BME280;19118;50.860;13.662;2022-09-09T13:45:02;96573.72;;;24.34;59.79
32747;BME280;19118;50.860;13.662;2022-09-09T13:55:26;96569.59;;;24.04;58.36
32747;BME280;19118;50.860;13.662;2022-09-09T14:00:32;96567.97;;;23.04;62.57
32747;BME280;19118;50.860;13.662;2022-09-09T14:05:33;96560.44;;;23.01;63.13
32747;BME280;19118;50.860;13.662;2022-09-09T14:10:34;96565.16;;;22.32;65.27
32747;BME280;19118;50.860;13.662;2022-09-09T14:15:38;96568.50;;;21.80;67.10
32747;BME280;19118;50.860;13.662;2022-09-09T14:20:38;96555.41;;;22.02;68.65
32747;BME280;19118;50.860;13.662;2022-09-09T14:25:42;96560.22;;;22.05;69.79
32747;BME280;19118;50.860;13.662;2022-09-09T14:30:43;96556.53;;;22.30;69.19
32747;BME280;19118;50.860;13.662;2022-09-09T14:35:47;96554.38;;;21.98;69.79
32747;BME280;19118;50.860;13.662;2022-09-09T14:40:47;96559.47;;;22.00;72.13
32747;BME280;19118;50.860;13.662;2022-09-09T14:45:47;96556.47;;;22.06;73.21
32747;BME280;19118;50.860;13.662;2022-09-09T14:50:51;96556.72;;;22.05;73.90
32747;BME280;19118;50.860;13.662;2022-09-09T14:55:51;96557.06;;;21.59;75.86
32747;BME280;19118;50.860;13.662;2022-09-09T15:00:52;96566.25;;;21.53;76.60
32747;BME280;19118;50.860;13.662;2022-09-09T15:05:53;96575.88;;;21.59;76.06
32747;BME280;19118;50.860;13.662;2022-09-09T15:11:04;96564.75;;;21.16;74.04
32747;BME280;19118;50.860;13.662;2022-09-09T15:21:05;96570.31;;;20.66;69.83
32747;BME280;19118;50.860;13.662;2022-09-09T15:26:06;96566.50;;;20.82;71.89
32747;BME280;19118;50.860;13.662;2022-09-09T15:31:13;96571.81;;;21.02;73.75
32747;BME280;19118;50.860;13.662;2022-09-09T15:36:24;96565.66;;;20.97;73.25
32747;BME280;19118;50.860;13.662;2022-09-09T15:41:25;96553.06;;;20.87;74.01
32747;BME280;19118;50.860;13.662;2022-09-09T15:46:32;96556.03;;;20.80;73.10
32747;BME280;19118;50.860;13.662;2022-09-09T15:51:33;96545.50;;;20.94;73.08
32747;BME280;19118;50.860;13.662;2022-09-09T15:56:33;96543.75;;;20.54;77.56
32747;BME280;19118;50.860;13.662;2022-09-09T16:01:36;96554.78;;;20.06;78.63
32747;BME280;19118;50.860;13.662;2022-09-09T16:06:36;96562.28;;;20.20;77.87
32747;BME280;19118;50.860;13.662;2022-09-09T16:11:38;96556.38;;;20.28;78.66
32747;BME280;19118;50.860;13.662;2022-09-09T16:16:39;96551.00;;;20.13;76.24
32747;BME280;19118;50.860;13.662;2022-09-09T16:21:42;96554.72;;;19.66;76.30
32747;BME280;19118;50.860;13.662;2022-09-09T16:26:46;96555.25;;;19.58;74.31
32747;BME280;19118;50.860;13.662;2022-09-09T16:31:46;96548.03;;;19.63;74.65
32747;BME280;19118;50.860;13.662;2022-09-09T16:36:47;96552.50;;;19.37;76.65
32747;BME280;19118;50.860;13.662;2022-09-09T16:41:48;96555.00;;;19.64;75.34
32747;BME280;19118;50.860;13.662;2022-09-09T16:46:49;96564.66;;;19.65;74.62
32747;BME280;19118;50.860;13.662;2022-09-09T16:51:52;96562.00;;;19.75;72.82
32747;BME280;19118;50.860;13.662;2022-09-09T16:56:55;96567.66;;;19.99;71.67
32747;BME280;19118;50.860;13.662;2022-09-09T17:01:55;96583.63;;;19.43;71.79
32747;BME280;19118;50.860;13.662;2022-09-09T17:06:56;96577.41;;;19.28;72.20
32747;BME280;19118;50.860;13.662;2022-09-09T17:11:57;96576.59;;;19.27;74.58
32747;BME280;19118;50.860;13.662;2022-09-09T17:16:58;96581.34;;;19.10;76.68
32747;BME280;19118;50.860;13.662;2022-09-09T17:21:59;96586.34;;;18.86;78.60
32747;BME280;19118;50.860;13.662;2022-09-09T17:27:00;96594.78;;;18.30;80.43
32747;BME280;19118;50.860;13.662;2022-09-09T17:32:02;96601.81;;;17.78;82.99
32747;BME280;19118;50.860;13.662;2022-09-09T17:37:03;96616.97;;;17.45;84.21
32747;BME280;19118;50.860;13.662;2022-09-09T17:42:06;96612.75;;;17.05;86.99
32747;BME280;19118;50.860;13.662;2022-09-09T17:47:07;96612.41;;;16.80;86.90
32747;BME280;19118;50.860;13.662;2022-09-09T17:52:07;96621.94;;;16.93;82.50
32747;BME280;19118;50.860;13.662;2022-09-09T17:57:08;96621.28;;;16.85;82.11
32747;BME280;19118;50.860;13.662;2022-09-09T18:02:11;96616.94;;;16.63;83.28
32747;BME280;19118;50.860;13.662;2022-09-09T18:07:11;96619.44;;;16.52;84.29
32747;BME280;19118;50.860;13.662;2022-09-09T18:12:13;96633.63;;;16.36;84.95
32747;BME280;19118;50.860;13.662;2022-09-09T18:17:13;96637.50;;;16.12;89.19
32747;BME280;19118;50.860;13.662;2022-09-09T18:22:14;96635.53;;;15.90;89.71
32747;BME280;19118;50.860;13.662;2022-09-09T18:27:14;96628.88;;;15.76;90.67
32747;BME280;19118;50.860;13.662;2022-09-09T18:32:15;96632.28;;;15.60;93.33
32747;BME280;19118;50.860;13.662;2022-09-09T18:37:16;96627.13;;;15.41;95.05
32747;BME280;19118;50.860;13.662;2022-09-09T18:42:17;96633.88;;;15.32;96.96
32747;BME280;19118;50.860;13.662;2022-09-09T18:47:17;96629.38;;;15.21;97.32
32747;BME280;19118;50.860;13.662;2022-09-09T18:52:18;96631.38;;;15.14;97.83
32747;BME280;19118;50.860;13.662;2022-09-09T18:57:18;96638.09;;;15.05;97.96
32747;BME280;19118;50.860;13.662;2022-09-09T19:02:18;96634.53;;;14.99;98.00
32747;BME280;19118;50.860;13.662;2022-09-09T19:07:20;96640.31;;;15.08;98.22
32747;BME280;19118;50.860;13.662;2022-09-09T19:12:21;96641.34;;;15.07;98.52
32747;BME280;19118;50.860;13.662;2022-09-09T19:17:21;96641.22;;;15.02;99.01
32747;BME280;19118;50.860;13.662;2022-09-09T19:22:23;96649.47;;;14.89;99.54
32747;BME280;19118;50.860;13.662;2022-09-09T19:27:23;96648.44;;;14.78;100.00
32747;BME280;19118;50.860;13.662;2022-09-09T19:32:23;96657.94;;;14.74;100.00
32747;BME280;19118;50.860;13.662;2022-09-09T19:37:24;96655.72;;;14.82;100.00
32747;BME280;19118;50.860;13.662;2022-09-09T19:42:24;96645.06;;;14.82;100.00
32747;BME280;19118;50.860;13.662;2022-09-09T19:47:24;96647.53;;;14.72;100.00
32747;BME280;19118;50.860;13.662;2022-09-09T19:52:25;96640.00;;;14.69;100.00
32747;BME280;19118;50.860;13.662;2022-09-09T19:57:26;96641.97;;;14.85;99.69
32747;BME280;19118;50.860;13.662;2022-09-09T20:02:29;96639.25;;;15.09;92.30
32747;BME280;19118;50.860;13.662;2022-09-09T20:07:30;96643.09;;;15.53;85.54
32747;BME280;19118;50.860;13.662;2022-09-09T20:12:32;96648.09;;;15.78;82.87
32747;BME280;19118;50.860;13.662;2022-09-09T20:17:32;96646.06;;;15.97;80.34
32747;BME280;19118;50.860;13.662;2022-09-09T20:22:33;96660.94;;;16.10;78.91
32747;BME280;19118;50.860;13.662;2022-09-09T20:27:33;96655.78;;;16.20;77.44
32747;BME280;19118;50.860;13.662;2022-09-09T20:32:33;96669.28;;;16.30;77.08
32747;BME280;19118;50.860;13.662;2022-09-09T20:37:33;96669.69;;;16.22;77.29
32747;BME280;19118;50.860;13.662;2022-09-09T20:42:34;96665.47;;;16.26;76.67
32747;BME280;19118;50.860;13.662;2022-09-09T20:47:34;96670.00;;;16.25;76.81
32747;BME280;19118;50.860;13.662;2022-09-09T20:52:34;96666.13;;;16.33;75.80
32747;BME280;19118;50.860;13.662;2022-09-09T20:57:35;96673.47;;;16.26;75.87
32747;BME280;19118;50.860;13.662;2022-09-09T21:02:36;96680.91;;;16.24;76.21
32747;BME280;19118;50.860;13.662;2022-09-09T21:07:36;96683.09;;;16.10;77.47
32747;BME280;19118;50.860;13.662;2022-09-09T21:12:36;96684.59;;;16.06;78.45
32747;BME280;19118;50.860;13.662;2022-09-09T21:17:37;96689.69;;;16.08;77.64
32747;BME280;19118;50.860;13.662;2022-09-09T21:22:39;96695.13;;;16.13;76.39
32747;BME280;19118;50.860;13.662;2022-09-09T21:27:39;96698.28;;;16.10;76.77
32747;BME280;19118;50.860;13.662;2022-09-09T21:32:40;96695.69;;;16.15;75.82
32747;BME280;19118;50.860;13.662;2022-09-09T21:37:40;96694.00;;;16.09;75.90
32747;BME280;19118;50.860;13.662;2022-09-09T21:42:41;96693.38;;;15.90;77.64
32747;BME280;19118;50.860;13.662;2022-09-09T21:47:45;96688.84;;;15.62;78.62
32747;BME280;19118;50.860;13.662;2022-09-09T21:52:48;96680.88;;;15.38;80.91
32747;BME280;19118;50.860;13.662;2022-09-09T21:57:49;96685.00;;;15.18;80.90
32747;BME280;19118;50.860;13.662;2022-09-09T22:02:50;96689.97;;;15.14;81.29
32747;BME280;19118;50.860;13.662;2022-09-09T22:07:51;96684.56;;;14.97;82.62
32747;BME280;19118;50.860;13.662;2022-09-09T22:12:52;96686.41;;;14.97;82.64
32747;BME280;19118;50.860;13.662;2022-09-09T22:17:53;96682.94;;;14.96;82.63
32747;BME280;19118;50.860;13.662;2022-09-09T22:22:54;96683.28;;;14.76;82.62
32747;BME280;19118;50.860;13.662;2022-09-09T22:27:54;96672.63;;;14.76;82.14
32747;BME280;19118;50.860;13.662;2022-09-09T22:32:56;96683.94;;;14.60;83.34
32747;BME280;19118;50.860;13.662;2022-09-09T22:37:56;96678.41;;;14.50;83.78
32747;BME280;19118;50.860;13.662;2022-09-09T22:42:57;96677.25;;;14.57;83.81
32747;BME280;19118;50.860;13.662;2022-09-09T22:47:59;96667.16;;;14.48;84.47
32747;BME280;19118;50.860;13.662;2022-09-09T22:53:00;96658.56;;;14.22;85.79
32747;BME280;19118;50.860;13.662;2022-09-09T22:58:00;96653.13;;;14.17;86.29
32747;BME280;19118;50.860;13.662;2022-09-09T23:03:00;96645.00;;;14.12;87.44
32747;BME280;19118;50.860;13.662;2022-09-09T23:08:01;96648.81;;;14.05;88.27
32747;BME280;19118;50.860;13.662;2022-09-09T23:13:01;96640.22;;;13.91;88.88
32747;BME280;19118;50.860;13.662;2022-09-09T23:18:01;96638.78;;;13.77;90.59
32747;BME280;19118;50.860;13.662;2022-09-09T23:23:02;96641.31;;;13.72;90.83
32747;BME280;19118;50.860;13.662;2022-09-09T23:28:03;96645.63;;;13.84;89.90
32747;BME280;19118;50.860;13.662;2022-09-09T23:33:03;96645.69;;;13.66;91.40
32747;BME280;19118;50.860;13.662;2022-09-09T23:38:04;96645.69;;;13.66;91.42
32747;BME280;19118;50.860;13.662;2022-09-09T23:43:04;96652.97;;;13.40;92.58
32747;BME280;19118;50.860;13.662;2022-09-09T23:48:06;96657.38;;;13.47;93.16
32747;BME280;19118;50.860;13.662;2022-09-09T23:53:06;96661.97;;;13.39;93.79
32747;BME280;19118;50.860;13.662;2022-09-09T23:58:07;96669.03;;;13.46;93.43
